EGEO/OBN METAR and TAF weather

Enter ICAO airport designator
Station Type Date Time Source
EGEO METAR 2019/06/24 15:20 UTC NOAA

EGEO 241520Z 35008KT 9999 FEW021 BKN029 16/12 Q1018


Station Type Date Time Source
EGEO Decoded METAR 2019/06/24 15:20 UTC NOAA

Station name not available
Jun 24, 2019 - 11:20 AM EDT / 2019.06.24 1520 UTC
Wind: from the N (350 degrees) at 9 MPH (8 KT):0
Visibility: greater than 7 mile(s):0
Sky conditions: mostly cloudy
Temperature: 60 F (16 C)
Dew Point: 53 F (12 C)
Relative Humidity: 77%
Pressure (altimeter): 30.06 in. Hg (1018 hPa)
ob: EGEO 241520Z 35008KT 9999 FEW021 BKN029 16/12 Q1018
cycle: 15

Station Type Date Time Source
EGEO TAF UTC NOAA

Error!

Example: see airport list